createdAt,value
2023-04-18T00:01:10.908Z,101978.72
2023-04-18T00:03:38.943Z,101971.28
2023-04-18T00:06:05.765Z,101969.34
2023-04-18T00:08:33.549Z,101980.69
2023-04-18T00:10:59.888Z,101975.94
2023-04-18T00:13:28.252Z,101980.91
2023-04-18T00:15:55.204Z,101979.69
2023-04-18T00:18:22.035Z,101977.47
2023-04-18T00:20:48.464Z,101965.50
2023-04-18T00:23:15.046Z,101971.34
2023-04-18T00:25:41.468Z,101967.44
2023-04-18T00:28:07.875Z,101966.19
2023-04-18T00:30:34.462Z,101968.66
2023-04-18T00:33:01.309Z,101966.66
2023-04-18T00:35:27.784Z,101965.56
2023-04-18T00:37:54.170Z,101967.13
2023-04-18T00:40:20.642Z,101965.31
2023-04-18T00:42:46.977Z,101958.84
2023-04-18T00:45:13.429Z,101958.84
2023-04-18T00:47:39.879Z,101960.53
2023-04-18T00:50:07.299Z,101959.56
2023-04-18T00:52:35.743Z,101955.91
2023-04-18T00:55:07.858Z,101956.75
2023-04-18T00:57:34.906Z,101965.78
2023-04-18T01:00:02.277Z,101951.50
2023-04-18T01:02:32.083Z,101946.13
2023-04-18T01:04:58.656Z,101956.88
2023-04-18T01:07:26.486Z,101949.81
2023-04-18T01:09:53.928Z,101948.34
2023-04-18T01:12:20.402Z,101957.28
2023-04-18T01:14:46.780Z,101952.88
2023-04-18T01:17:13.451Z,101950.34
2023-04-18T01:19:40.542Z,101964.72
2023-04-18T01:22:07.533Z,101953.97
2023-04-18T01:24:34.173Z,101953.25
2023-04-18T01:27:02.771Z,101955.09
2023-04-18T01:29:29.204Z,101946.19
2023-04-18T01:31:55.735Z,101955.94
2023-04-18T01:34:22.178Z,101946.06
2023-04-18T01:36:48.807Z,101953.25
2023-04-18T01:39:15.442Z,101944.22
2023-04-18T01:41:42.204Z,101946.66
2023-04-18T01:44:08.635Z,101948.50
2023-04-18T01:46:35.945Z,101946.66
2023-04-18T01:49:02.506Z,101952.88
2023-04-18T01:51:28.945Z,101940.44
2023-04-18T01:53:55.375Z,101946.66
2023-04-18T01:56:21.829Z,101942.13
2023-04-18T01:58:48.349Z,101946.66
2023-04-18T02:01:14.807Z,101947.50
2023-04-18T02:03:41.302Z,101948.34
2023-04-18T02:06:08.005Z,101942.97
2023-04-18T02:08:35.694Z,101938.50
2023-04-18T02:11:02.299Z,101934.94
2023-04-18T02:13:28.987Z,101946.53
2023-04-18T02:15:55.321Z,101942.97
2023-04-18T02:18:24.637Z,101935.91
2023-04-18T02:20:51.884Z,101940.44
2023-04-18T02:23:19.050Z,101937.88
2023-04-18T02:25:45.665Z,101938.72
2023-04-18T02:28:12.155Z,101944.22
2023-04-18T02:30:38.539Z,101938.88
2023-04-18T02:33:04.971Z,101937.13
2023-04-18T02:35:31.745Z,101936.19
2023-04-18T02:37:58.056Z,101943.38
2023-04-18T02:40:24.458Z,101939.81
2023-04-18T02:42:51.068Z,101939.81
2023-04-18T02:45:17.768Z,101938.13
2023-04-18T02:47:54.735Z,101939.13
2023-04-18T02:50:23.019Z,101947.19
2023-04-18T02:52:49.409Z,101950.81
2023-04-18T02:55:16.079Z,101945.59
2023-04-18T02:57:42.457Z,101941.19
2023-04-18T03:00:09.378Z,101951.09
2023-04-18T03:02:35.903Z,101938.66
2023-04-18T03:05:02.726Z,101953.75
2023-04-18T03:07:30.818Z,101950.22
2023-04-18T03:09:57.219Z,101953.75
2023-04-18T03:12:23.590Z,101952.06
2023-04-18T03:14:50.099Z,101952.06
2023-04-18T03:17:16.506Z,101956.72
2023-04-18T03:19:43.007Z,101952.19
2023-04-18T03:22:09.924Z,101957.69
2023-04-18T03:24:36.252Z,101951.59
2023-04-18T03:27:02.678Z,101949.03
2023-04-18T03:29:29.093Z,101966.22
2023-04-18T03:31:55.591Z,101954.06
2023-04-18T03:34:22.172Z,101959.66
2023-04-18T03:36:48.690Z,101965.28
2023-04-18T03:39:15.038Z,101966.38
2023-04-18T03:41:41.414Z,101976.41
2023-04-18T03:44:07.854Z,101977.50
2023-04-18T03:46:34.889Z,101977.72
2023-04-18T03:49:01.233Z,101975.31
2023-04-18T03:51:27.731Z,101970.09
2023-04-18T03:53:54.148Z,101979.09
2023-04-18T03:56:20.804Z,101986.28
2023-04-18T03:58:47.153Z,101986.28
2023-04-18T04:01:13.571Z,101982.63
2023-04-18T04:03:40.283Z,101987.13
2023-04-18T04:06:06.917Z,101983.59
2023-04-18T04:08:34.176Z,101988.25
2023-04-18T04:11:00.522Z,101988.25
2023-04-18T04:13:26.858Z,101992.88
2023-04-18T04:15:53.416Z,101989.44
2023-04-18T04:18:20.143Z,101981.66
2023-04-18T04:20:46.994Z,101987.97
2023-04-18T04:23:13.466Z,101999.94
2023-04-18T04:25:39.935Z,101989.44
2023-04-18T04:28:06.628Z,101993.25
2023-04-18T04:30:33.631Z,101985.41
2023-04-18T04:33:01.579Z,101990.06
2023-04-18T04:35:28.294Z,101999.22
2023-04-18T04:37:54.679Z,101995.78
2023-04-18T04:40:22.883Z,101992.38
2023-04-18T04:42:53.855Z,102001.41
2023-04-18T04:45:20.474Z,102001.41
2023-04-18T04:47:47.520Z,101992.63
2023-04-18T04:50:15.666Z,101997.13
2023-04-18T04:52:42.590Z,102002.75
2023-04-18T04:55:09.103Z,102002.00
2023-04-18T04:57:35.916Z,102004.06
2023-04-18T05:00:02.287Z,102005.28
2023-04-18T05:02:28.780Z,102006.38
2023-04-18T05:04:55.355Z,102009.16
2023-04-18T05:07:21.850Z,102009.31
2023-04-18T05:09:48.178Z,102022.72
2023-04-18T05:12:14.669Z,102025.50
2023-04-18T05:14:40.998Z,102023.78
2023-04-18T05:17:07.723Z,102020.28
2023-04-18T05:19:34.137Z,102027.31
2023-04-18T05:22:00.510Z,102019.28
2023-04-18T05:24:26.844Z,102018.31
2023-04-18T05:26:53.602Z,102010.25
2023-04-18T05:29:20.276Z,102006.63
2023-04-18T05:31:46.644Z,102021.97
2023-04-18T05:34:13.203Z,102026.47
2023-04-18T05:36:39.840Z,102027.44
2023-04-18T05:39:06.180Z,102043.50
2023-04-18T05:41:32.622Z,102039.13
2023-04-18T05:44:05.456Z,102038.28
2023-04-18T05:46:43.463Z,102033.88
2023-04-18T05:49:09.906Z,102040.22
2023-04-18T05:51:36.284Z,102040.22
2023-04-18T05:54:02.828Z,102044.00
2023-04-18T05:56:29.271Z,102046.66
2023-04-18T05:58:55.794Z,102050.34
2023-04-18T06:01:22.982Z,102051.28
2023-04-18T06:03:49.430Z,102046.78
2023-04-18T06:06:16.087Z,102046.78
2023-04-18T06:08:42.554Z,102058.47
2023-04-18T06:11:09.023Z,102053.97
2023-04-18T06:13:36.076Z,102068.22
2023-04-18T06:16:03.229Z,102061.06
2023-04-18T06:18:29.563Z,102066.41
2023-04-18T06:20:55.915Z,102056.66
2023-04-18T06:23:22.421Z,102066.41
2023-04-18T06:25:48.804Z,102064.69
2023-04-18T06:28:15.142Z,102064.69
2023-04-18T06:30:41.610Z,102074.44
2023-04-18T06:33:10.458Z,102070.78
2023-04-18T06:35:37.365Z,102070.69
2023-04-18T06:38:04.288Z,102072.28
2023-04-18T06:40:30.682Z,102076.53
2023-04-18T06:42:57.034Z,102073.72
2023-04-18T06:45:23.443Z,102080.78
2023-04-18T06:47:51.255Z,102071.91
2023-04-18T06:50:17.640Z,102081.75
2023-04-18T06:52:46.717Z,102077.25
2023-04-18T06:55:13.994Z,102065.59
2023-04-18T06:57:41.766Z,102071.78
2023-04-18T07:00:10.025Z,102061.19
2023-04-18T07:02:38.756Z,102060.09
2023-04-18T07:05:06.233Z,102078.00
2023-04-18T07:07:34.980Z,102060.09
2023-04-18T07:10:01.558Z,102067.03
2023-04-18T07:12:27.898Z,102065.22
2023-04-18T07:14:54.758Z,102068.63
2023-04-18T07:17:21.179Z,102076.44
2023-04-18T07:19:47.711Z,102064.50
2023-04-18T07:22:14.108Z,102063.28
2023-04-18T07:24:40.497Z,102064.66
2023-04-18T07:27:06.991Z,102068.66
2023-04-18T07:29:33.311Z,102086.84
2023-04-18T07:31:59.637Z,102094.28
2023-04-18T07:34:29.698Z,102086.53
2023-04-18T07:36:58.859Z,102092.13
2023-04-18T07:39:25.341Z,102093.72
2023-04-18T07:41:51.746Z,102094.31
2023-04-18T07:44:18.482Z,102099.31
2023-04-18T07:46:44.973Z,102103.44
2023-04-18T07:49:11.657Z,102103.34
2023-04-18T07:51:38.143Z,102095.88
2023-04-18T07:54:04.660Z,102095.66
2023-04-18T07:56:30.997Z,102087.22
2023-04-18T07:58:57.316Z,102092.97
2023-04-18T08:01:24.793Z,102085.13
2023-04-18T08:03:53.157Z,102094.25
2023-04-18T08:06:19.720Z,102095.47
2023-04-18T08:08:46.444Z,102100.22
2023-04-18T08:11:12.916Z,102097.88
2023-04-18T08:13:39.370Z,102092.97
2023-04-18T08:16:06.237Z,102099.91
2023-04-18T08:18:32.579Z,102100.66
2023-04-18T08:20:58.949Z,102110.41
2023-04-18T08:23:25.363Z,102105.75
2023-04-18T08:25:51.706Z,102109.91
2023-04-18T08:28:18.371Z,102108.56
2023-04-18T08:30:48.658Z,102116.81
2023-04-18T08:33:16.109Z,102120.56
2023-04-18T08:35:43.029Z,102115.28
2023-04-18T08:38:09.646Z,102107.41
2023-04-18T08:40:37.180Z,102108.34
2023-04-18T08:43:09.203Z,102109.19
2023-04-18T08:45:36.734Z,102109.94
2023-04-18T08:48:03.778Z,102107.31
2023-04-18T08:50:30.675Z,102109.19
2023-04-18T08:52:59.412Z,102114.06
2023-04-18T08:55:25.758Z,102109.25
2023-04-18T08:57:55.057Z,102102.47
2023-04-18T09:00:22.641Z,102104.91
2023-04-18T09:02:49.437Z,102115.28
2023-04-18T09:05:19.994Z,102106.81
2023-04-18T09:07:47.736Z,102114.72
2023-04-18T09:10:26.338Z,102114.44
2023-04-18T09:12:52.698Z,102117.88
2023-04-18T09:15:23.562Z,102097.78
2023-04-18T09:17:54.459Z,102110.97
2023-04-18T09:20:35.798Z,102101.47
2023-04-18T09:23:04.215Z,102105.75
2023-04-18T09:25:40.793Z,102113.53
2023-04-18T09:28:32.972Z,102102.47
2023-04-18T09:31:17.359Z,102110.31
2023-04-18T09:33:56.650Z,102105.50
2023-04-18T09:36:26.968Z,102098.97
2023-04-18T09:38:56.225Z,102104.09
2023-04-18T09:41:23.670Z,102102.97
2023-04-18T09:43:50.331Z,102108.22
2023-04-18T09:46:17.772Z,102109.63
2023-04-18T09:48:44.268Z,102092.22
2023-04-18T09:51:13.915Z,102110.50
2023-04-18T09:53:44.863Z,102106.28
2023-04-18T09:56:27.460Z,102107.28
2023-04-18T09:59:07.086Z,102097.78
2023-04-18T10:01:33.819Z,102097.38
2023-04-18T10:04:02.127Z,102105.91
2023-04-18T10:06:28.912Z,102105.31
2023-04-18T10:08:56.000Z,102105.63
2023-04-18T10:11:24.016Z,102105.03
2023-04-18T10:13:56.219Z,102111.41
2023-04-18T10:16:23.234Z,102116.09
2023-04-18T10:18:51.023Z,102109.84
2023-04-18T10:21:17.564Z,102097.22
2023-04-18T10:23:45.776Z,102100.75
2023-04-18T10:26:12.324Z,102100.56
2023-04-18T10:28:58.155Z,102108.16
2023-04-18T10:31:27.406Z,102091.09
2023-04-18T10:34:05.301Z,102095.47
2023-04-18T10:36:32.378Z,102094.03
2023-04-18T10:39:19.310Z,102105.13
2023-04-18T10:41:50.927Z,102096.22
2023-04-18T10:44:21.747Z,102095.66
2023-04-18T10:46:48.050Z,102091.31
2023-04-18T10:49:23.897Z,102083.47
2023-04-18T10:51:53.690Z,102082.59
2023-04-18T10:54:28.553Z,102081.66
2023-04-18T10:56:56.673Z,102087.00
2023-04-18T10:59:25.023Z,102077.81
2023-04-18T11:01:57.273Z,102086.84
2023-04-18T11:04:25.587Z,102081.81
2023-04-18T11:06:57.399Z,102077.41
2023-04-18T11:09:24.456Z,102076.03
2023-04-18T11:12:08.280Z,102082.75
2023-04-18T11:14:49.952Z,102075.63
2023-04-18T11:17:21.942Z,102067.00
2023-04-18T11:19:48.466Z,102064.59
2023-04-18T11:22:16.268Z,102066.44
2023-04-18T11:24:42.783Z,102079.28
2023-04-18T11:27:10.895Z,102065.75
2023-04-18T11:29:38.157Z,102072.31
2023-04-18T11:32:09.296Z,102075.16
2023-04-18T11:34:35.924Z,102070.06
2023-04-18T11:37:07.546Z,102074.63
2023-04-18T11:39:36.257Z,102066.34
2023-04-18T11:42:02.653Z,102073.16
2023-04-18T11:44:29.050Z,102062.88
2023-04-18T11:46:55.458Z,102069.00
2023-04-18T11:49:39.958Z,102069.25
2023-04-18T11:52:12.256Z,102069.44
2023-04-18T11:54:43.405Z,102069.69
2023-04-18T11:57:20.377Z,102066.88
2023-04-18T11:59:54.250Z,102062.56
2023-04-18T12:02:22.393Z,102074.47
2023-04-18T12:05:00.245Z,102068.44
2023-04-18T12:07:45.742Z,102067.41
2023-04-18T12:10:25.962Z,102059.47
2023-04-18T12:12:54.802Z,102061.78
2023-04-18T12:15:24.047Z,102055.28
2023-04-18T12:17:53.400Z,102070.81
2023-04-18T12:20:20.019Z,102060.00
2023-04-18T12:22:51.456Z,102051.19
2023-04-18T12:25:27.836Z,102061.47
2023-04-18T12:28:12.774Z,102058.38
2023-04-18T12:30:39.112Z,102059.03
2023-04-18T12:33:05.454Z,102058.19
2023-04-18T12:35:32.331Z,102055.84
2023-04-18T12:38:00.374Z,102047.81
2023-04-18T12:40:27.185Z,102049.41
2023-04-18T12:42:54.414Z,102048.00
2023-04-18T12:45:22.674Z,102060.97
2023-04-18T12:47:50.822Z,102060.88
2023-04-18T12:50:21.963Z,102054.69
2023-04-18T12:52:48.895Z,102055.97
2023-04-18T12:55:15.704Z,102047.53
2023-04-18T12:57:43.080Z,102049.25
2023-04-18T13:00:14.635Z,102041.34
2023-04-18T13:02:43.935Z,102042.41
2023-04-18T13:05:12.791Z,102037.16
2023-04-18T13:07:43.033Z,102040.41
2023-04-18T13:10:10.988Z,102037.69
2023-04-18T13:12:37.994Z,102037.16
2023-04-18T13:15:05.405Z,102040.66
2023-04-18T13:17:32.652Z,102031.53
2023-04-18T13:20:00.102Z,102030.97
2023-04-18T13:22:28.315Z,102028.44
2023-04-18T13:24:54.662Z,102039.09
2023-04-18T13:27:21.079Z,102027.78
2023-04-18T13:29:47.438Z,102019.88
2023-04-18T13:32:13.871Z,102035.28
2023-04-18T13:34:46.239Z,102023.13
2023-04-18T13:37:13.889Z,102023.81
2023-04-18T13:39:40.736Z,102028.03
2023-04-18T13:42:08.512Z,102024.84
2023-04-18T13:44:36.703Z,102018.75
2023-04-18T13:47:04.953Z,102014.50
2023-04-18T13:49:32.761Z,102025.69
2023-04-18T13:51:59.161Z,102024.84
2023-04-18T13:54:29.792Z,102026.72
2023-04-18T13:56:58.228Z,102011.78
2023-04-18T13:59:25.825Z,102016.72
2023-04-18T14:01:53.374Z,102014.69
2023-04-18T14:04:24.221Z,102004.31
2023-04-18T14:06:51.237Z,102010.44
2023-04-18T14:09:17.878Z,102003.66
2023-04-18T14:11:45.484Z,102017.38
2023-04-18T14:14:11.937Z,102008.72
2023-04-18T14:16:38.335Z,102005.50
2023-04-18T14:19:04.809Z,102001.06
2023-04-18T14:21:31.538Z,102000.22
2023-04-18T14:23:57.857Z,102005.16
2023-04-18T14:26:24.410Z,101995.63
2023-04-18T14:28:51.096Z,101986.28
2023-04-18T14:31:17.779Z,101988.69
2023-04-18T14:33:44.709Z,101991.72
2023-04-18T14:36:11.228Z,101988.44
2023-04-18T14:38:37.796Z,101991.69
2023-04-18T14:41:05.464Z,101984.38
2023-04-18T14:43:32.214Z,101991.31
2023-04-18T14:45:59.690Z,101991.50
2023-04-18T14:48:26.586Z,101984.38
2023-04-18T14:51:00.268Z,101988.78
2023-04-18T14:53:27.068Z,101979.63
2023-04-18T14:55:53.515Z,101984.03
2023-04-18T14:58:20.280Z,101984.03
2023-04-18T15:00:46.661Z,101972.13
2023-04-18T15:03:13.605Z,101977.38
2023-04-18T15:05:42.932Z,101979.06
2023-04-18T15:08:11.373Z,101982.97
2023-04-18T15:10:38.592Z,101971.81
2023-04-18T15:13:05.003Z,101974.56
2023-04-18T15:15:35.360Z,101973.56
2023-04-18T15:18:02.518Z,101978.69
2023-04-18T15:20:29.526Z,101980.03
2023-04-18T15:22:56.807Z,101981.06
2023-04-18T15:25:23.483Z,101964.09
2023-04-18T15:27:49.933Z,101986.50
2023-04-18T15:30:16.513Z,101972.94
2023-04-18T15:32:42.926Z,101975.13
2023-04-18T15:35:10.191Z,101963.56
2023-04-18T15:37:37.034Z,101963.03
2023-04-18T15:40:06.548Z,101965.88
2023-04-18T15:42:33.846Z,101967.25
2023-04-18T15:45:00.356Z,101974.34
2023-04-18T15:47:27.056Z,101974.50
2023-04-18T15:49:53.522Z,101980.97
2023-04-18T15:52:19.937Z,101983.38
2023-04-18T15:54:46.379Z,101972.19
2023-04-18T15:57:12.790Z,101976.28
2023-04-18T15:59:39.235Z,101975.41
2023-04-18T16:02:07.367Z,101971.34
2023-04-18T16:04:34.076Z,101985.09
2023-04-18T16:07:00.849Z,101986.06
2023-04-18T16:09:27.226Z,101980.25
2023-04-18T16:11:53.782Z,101975.72
2023-04-18T16:14:20.104Z,101971.13
2023-04-18T16:16:46.411Z,101971.78
2023-04-18T16:19:12.875Z,101973.78
2023-04-18T16:21:39.276Z,101972.91
2023-04-18T16:24:06.037Z,101970.81
2023-04-18T16:26:32.399Z,101971.44
2023-04-18T16:28:58.935Z,101966.31
2023-04-18T16:31:25.768Z,101964.25
2023-04-18T16:33:55.140Z,101964.09
2023-04-18T16:36:21.578Z,101970.56
2023-04-18T16:38:48.014Z,101968.31
2023-04-18T16:41:14.340Z,101961.31
2023-04-18T16:43:40.776Z,101955.69
2023-04-18T16:46:08.049Z,101964.25
2023-04-18T16:48:37.722Z,101965.91
2023-04-18T16:51:04.555Z,101954.94
2023-04-18T16:53:31.020Z,101964.06
2023-04-18T16:55:57.533Z,101967.94
2023-04-18T16:58:23.916Z,101964.47
2023-04-18T17:00:50.450Z,101967.31
2023-04-18T17:03:17.197Z,101971.81
2023-04-18T17:05:44.450Z,101967.69
2023-04-18T17:08:10.927Z,101961.03
2023-04-18T17:10:37.504Z,101975.50
2023-04-18T17:13:04.011Z,101963.59
2023-04-18T17:15:30.832Z,101968.38
2023-04-18T17:18:00.004Z,101967.03
2023-04-18T17:20:27.932Z,101971.16
2023-04-18T17:22:54.767Z,101966.28
2023-04-18T17:25:21.520Z,101965.97
2023-04-18T17:27:47.954Z,101978.25
2023-04-18T17:30:14.593Z,101973.16
2023-04-18T17:32:45.595Z,101978.50
2023-04-18T17:35:14.522Z,101980.94
2023-04-18T17:37:42.351Z,101981.31
2023-04-18T17:40:10.101Z,101982.50
2023-04-18T17:42:39.033Z,101985.41
2023-04-18T17:45:09.595Z,101981.16
2023-04-18T17:47:36.614Z,101988.50
2023-04-18T17:50:06.974Z,101996.66
2023-04-18T17:52:33.610Z,102000.09
2023-04-18T17:55:01.498Z,101991.13
2023-04-18T17:57:30.277Z,101999.56
2023-04-18T17:59:56.692Z,101999.22
2023-04-18T18:02:28.070Z,101997.28
2023-04-18T18:04:55.003Z,101998.38
2023-04-18T18:07:21.429Z,101999.47
2023-04-18T18:09:47.782Z,102000.72
2023-04-18T18:12:14.395Z,102006.50
2023-04-18T18:14:40.750Z,102009.59
2023-04-18T18:17:07.399Z,102011.63
2023-04-18T18:19:36.688Z,102018.06
2023-04-18T18:22:03.236Z,102028.41
2023-04-18T18:24:29.741Z,102019.38
2023-04-18T18:26:56.796Z,102026.59
2023-04-18T18:29:23.255Z,102032.63
2023-04-18T18:31:49.934Z,102038.66
2023-04-18T18:34:16.902Z,102033.69
2023-04-18T18:36:43.303Z,102042.25
2023-04-18T18:39:11.065Z,102043.38
2023-04-18T18:41:37.563Z,102040.94
2023-04-18T18:44:04.013Z,102039.38
2023-04-18T18:46:31.081Z,102038.56
2023-04-18T18:48:57.487Z,102043.94
2023-04-18T18:51:23.906Z,102034.22
2023-04-18T18:53:50.652Z,102043.09
2023-04-18T18:56:17.083Z,102042.19
2023-04-18T18:58:43.726Z,102052.06
2023-04-18T19:01:11.488Z,102055.53
2023-04-18T19:03:38.108Z,102061.03
2023-04-18T19:06:06.912Z,102059.09
2023-04-18T19:08:33.817Z,102064.44
2023-04-18T19:11:00.238Z,102064.31
2023-04-18T19:13:26.617Z,102067.63
2023-04-18T19:15:53.183Z,102075.50
2023-04-18T19:18:20.248Z,102078.66
2023-04-18T19:20:47.084Z,102077.22
2023-04-18T19:23:13.697Z,102070.44
2023-04-18T19:25:40.136Z,102075.41
2023-04-18T19:28:06.570Z,102069.59
2023-04-18T19:30:33.018Z,102076.47
2023-04-18T19:32:59.655Z,102079.59
2023-04-18T19:35:26.161Z,102081.88
2023-04-18T19:37:55.816Z,102085.91
2023-04-18T19:40:23.689Z,102087.19
2023-04-18T19:42:50.104Z,102092.03
2023-04-18T19:45:16.516Z,102090.75
2023-04-18T19:47:44.330Z,102093.91
2023-04-18T19:50:11.447Z,102090.78
2023-04-18T19:52:38.027Z,102092.06
2023-04-18T19:55:05.213Z,102099.59
2023-04-18T19:57:31.840Z,102095.47
2023-04-18T19:59:58.389Z,102094.09
2023-04-18T20:02:24.859Z,102098.78
2023-04-18T20:04:51.482Z,102101.59
2023-04-18T20:07:18.088Z,102101.06
2023-04-18T20:09:44.442Z,102099.50
2023-04-18T20:12:10.847Z,102102.31
2023-04-18T20:14:37.217Z,102101.63
2023-04-18T20:17:03.648Z,102092.81
2023-04-18T20:19:30.061Z,102091.13
2023-04-18T20:21:56.408Z,102097.50
2023-04-18T20:24:23.682Z,102097.50
2023-04-18T20:26:51.274Z,102093.97
2023-04-18T20:29:17.719Z,102097.50
2023-04-18T20:31:44.201Z,102101.94
2023-04-18T20:34:10.913Z,102098.22
2023-04-18T20:36:41.452Z,102101.63
2023-04-18T20:39:08.886Z,102100.63
2023-04-18T20:41:36.781Z,102096.91
2023-04-18T20:44:05.240Z,102104.75
2023-04-18T20:46:32.491Z,102100.19
2023-04-18T20:48:59.014Z,102102.59
2023-04-18T20:51:26.794Z,102099.06
2023-04-18T20:53:53.377Z,102097.22
2023-04-18T20:56:20.067Z,102084.56
2023-04-18T20:58:46.495Z,102097.09
2023-04-18T21:01:13.174Z,102092.38
2023-04-18T21:03:39.705Z,102099.63
2023-04-18T21:06:06.167Z,102089.66
2023-04-18T21:08:35.048Z,102099.63
2023-04-18T21:11:01.561Z,102094.22
2023-04-18T21:13:27.950Z,102106.72
2023-04-18T21:15:57.032Z,102113.81
2023-04-18T21:18:23.858Z,102112.97
2023-04-18T21:20:50.485Z,102114.53
2023-04-18T21:23:16.928Z,102105.59
2023-04-18T21:25:43.351Z,102114.38
2023-04-18T21:28:09.790Z,102108.97
2023-04-18T21:30:36.325Z,102115.94
2023-04-18T21:33:03.319Z,102114.94
2023-04-18T21:35:30.184Z,102107.84
2023-04-18T21:37:56.866Z,102108.69
2023-04-18T21:40:24.205Z,102104.16
2023-04-18T21:42:53.304Z,102096.91
2023-04-18T21:45:19.741Z,102099.59
2023-04-18T21:47:46.729Z,102105.00
2023-04-18T21:50:13.160Z,102096.91
2023-04-18T21:52:39.676Z,102104.16
2023-04-18T21:55:06.274Z,102096.91
2023-04-18T21:57:32.603Z,102095.19
2023-04-18T21:59:58.987Z,102103.28
2023-04-18T22:02:26.818Z,102097.88
2023-04-18T22:04:53.344Z,102096.19
2023-04-18T22:07:20.309Z,102094.50
2023-04-18T22:09:46.946Z,102093.63
2023-04-18T22:12:14.306Z,102090.25
2023-04-18T22:14:41.874Z,102086.84
2023-04-18T22:17:09.195Z,102089.66
2023-04-18T22:19:35.639Z,102099.78
2023-04-18T22:22:02.106Z,102092.81
2023-04-18T22:24:28.561Z,102101.91
2023-04-18T22:26:54.955Z,102098.47
2023-04-18T22:29:21.379Z,102099.50
2023-04-18T22:31:47.752Z,102087.13
2023-04-18T22:34:14.436Z,102096.25
2023-04-18T22:36:42.569Z,102080.19
2023-04-18T22:39:09.074Z,102084.88
2023-04-18T22:41:35.725Z,102086.00
2023-04-18T22:44:02.181Z,102088.03
2023-04-18T22:46:28.758Z,102089.16
2023-04-18T22:48:55.255Z,102091.28
2023-04-18T22:51:23.291Z,102089.41
2023-04-18T22:53:49.823Z,102086.03
2023-04-18T22:56:16.268Z,102093.41
2023-04-18T22:58:42.658Z,102087.16
2023-04-18T23:01:09.089Z,102090.84
2023-04-18T23:03:35.817Z,102079.38
2023-04-18T23:06:02.431Z,102087.72
2023-04-18T23:08:28.966Z,102076.38
2023-04-18T23:10:55.421Z,102088.31
2023-04-18T23:13:21.803Z,102091.41
2023-04-18T23:15:48.243Z,102095.25
2023-04-18T23:18:15.024Z,102091.16
2023-04-18T23:20:41.347Z,102084.31
2023-04-18T23:23:07.678Z,102089.88
2023-04-18T23:25:34.297Z,102097.34
2023-04-18T23:28:00.748Z,102101.16
2023-04-18T23:30:27.182Z,102090.81
2023-04-18T23:32:53.922Z,102094.78
2023-04-18T23:35:20.355Z,102088.84
2023-04-18T23:37:46.790Z,102090.09
2023-04-18T23:40:13.319Z,102093.19
2023-04-18T23:42:39.671Z,102089.94
2023-04-18T23:45:06.480Z,102095.59
2023-04-18T23:47:33.075Z,102097.00
2023-04-18T23:49:59.565Z,102095.56
2023-04-18T23:52:26.017Z,102097.81
2023-04-18T23:54:52.544Z,102093.84
2023-04-18T23:57:18.892Z,102094.25
2023-04-18T23:59:45.422Z,102087.44
